createdAt,value
2023-06-10T00:09:09.552Z,76
2023-06-10T00:19:09.914Z,76
2023-06-10T00:29:10.086Z,76
2023-06-10T00:39:10.422Z,77
2023-06-10T00:49:10.739Z,77
2023-06-10T01:09:11.395Z,77
2023-06-10T01:19:12.136Z,77
2023-06-10T01:39:13.577Z,79
2023-06-10T01:49:13.905Z,78
2023-06-10T01:59:14.357Z,79
2023-06-10T02:09:15.244Z,80
2023-06-10T02:19:16.094Z,81
2023-06-10T02:29:16.660Z,81
2023-06-10T02:39:17.583Z,83
2023-06-10T02:59:18.532Z,83
2023-06-10T03:09:18.773Z,83
2023-06-10T03:29:20.266Z,84
2023-06-10T04:19:24.383Z,84
2023-06-10T04:59:26.579Z,80
2023-06-10T05:09:27.326Z,80
2023-06-10T05:19:27.757Z,79
2023-06-10T05:29:28.062Z,78
2023-06-10T05:49:29.232Z,75
2023-06-10T05:59:30.142Z,73
2023-06-10T06:09:31.200Z,72
2023-06-10T06:29:33.045Z,68
2023-06-10T06:49:34.627Z,66
2023-06-10T06:59:35.620Z,64
2023-06-10T07:09:36.219Z,65
2023-06-10T07:19:37.007Z,64
2023-06-10T07:29:37.283Z,63
2023-06-10T07:39:37.550Z,63
2023-06-10T07:49:38.537Z,62
2023-06-10T07:59:38.838Z,60
2023-06-10T08:09:39.084Z,61
2023-06-10T08:19:39.888Z,59
2023-06-10T08:29:40.894Z,59
2023-06-10T08:39:41.543Z,57
2023-06-10T08:49:42.226Z,57
2023-06-10T08:59:42.602Z,55
2023-06-10T09:09:43.524Z,56
2023-06-10T09:19:44.177Z,55
2023-06-10T09:29:44.624Z,55
2023-06-10T09:39:45.607Z,54
2023-06-10T09:49:45.728Z,53
2023-06-10T09:59:46.714Z,52
2023-06-10T10:09:47.318Z,52
2023-06-10T10:19:47.560Z,51
2023-06-10T10:29:47.874Z,50
2023-06-10T10:49:48.889Z,49
2023-06-10T10:59:49.029Z,49
2023-06-10T11:09:49.732Z,49
2023-06-10T11:19:49.986Z,49
2023-06-10T11:29:50.427Z,48
2023-06-10T11:39:51.032Z,47
2023-06-10T11:49:52.073Z,47
2023-06-10T11:59:52.066Z,46
2023-06-10T12:00:13.975Z,45
2023-06-10T12:09:58.682Z,45
2023-06-10T12:19:59.512Z,45
2023-06-10T12:29:59.716Z,46
2023-06-10T12:40:00.583Z,45
2023-06-10T12:50:00.814Z,44
2023-06-10T13:00:01.621Z,44
2023-06-10T13:10:01.686Z,45
2023-06-10T13:40:03.362Z,45
2023-06-10T15:50:11.942Z,47
2023-06-10T17:00:15.890Z,49
2023-06-10T19:20:23.214Z,59
2023-06-10T19:40:24.702Z,61
2023-06-10T19:50:25.268Z,62
2023-06-10T20:00:26.281Z,63
2023-06-10T20:20:27.855Z,65
2023-06-10T20:40:29.783Z,67
2023-06-10T21:00:30.888Z,68
2023-06-10T21:20:31.551Z,66
2023-06-10T21:40:32.681Z,69
